createdAt,value
2017-12-03T00:00:46.769Z,42.70
2017-12-03T00:03:13.385Z,39.30
2017-12-03T00:05:39.977Z,38.20
2017-12-03T00:08:06.573Z,39.87
2017-12-03T00:10:33.178Z,40.30
2017-12-03T00:12:59.785Z,36.57
2017-12-03T00:15:26.390Z,36.23
2017-12-03T00:17:52.999Z,39.83
2017-12-03T00:20:19.590Z,38.70
2017-12-03T00:22:46.187Z,37.27
2017-12-03T00:25:12.817Z,40.70
2017-12-03T00:27:39.415Z,34.93
2017-12-03T00:30:05.997Z,37.87
2017-12-03T00:32:32.618Z,37.30
2017-12-03T00:34:59.218Z,37.10
2017-12-03T00:37:25.806Z,35.23
2017-12-03T00:39:52.409Z,33.87
2017-12-03T00:42:18.993Z,37.80
2017-12-03T00:44:45.676Z,40.33
2017-12-03T00:47:12.277Z,35.87
2017-12-03T00:49:38.874Z,37.03
2017-12-03T00:52:05.465Z,37.63
2017-12-03T00:54:32.079Z,37.90
2017-12-03T00:56:58.667Z,35.70
2017-12-03T00:59:25.258Z,38.43
2017-12-03T01:01:51.860Z,40.47
2017-12-03T01:04:18.462Z,33.90
2017-12-03T01:06:45.051Z,36.20
2017-12-03T01:09:11.662Z,36.17
2017-12-03T01:11:38.254Z,37.53
2017-12-03T01:14:04.846Z,35.40
2017-12-03T01:16:31.453Z,36.13
2017-12-03T01:18:58.304Z,32.97
2017-12-03T01:21:24.990Z,29.80
2017-12-03T01:23:51.586Z,33.40
2017-12-03T01:26:18.222Z,32.10
2017-12-03T01:28:44.799Z,30.43
2017-12-03T01:31:11.419Z,35.57
2017-12-03T01:33:38.006Z,29.93
2017-12-03T01:36:04.605Z,34.67
2017-12-03T01:38:31.206Z,35.00
2017-12-03T01:40:57.795Z,34.80
2017-12-03T01:43:24.391Z,31.97
2017-12-03T01:45:51.002Z,31.57
2017-12-03T01:48:17.590Z,31.30
2017-12-03T01:50:44.178Z,29.83
2017-12-03T01:53:10.798Z,31.40
2017-12-03T01:55:37.385Z,30.60
2017-12-03T01:58:03.978Z,32.07
2017-12-03T02:00:30.594Z,37.73
2017-12-03T02:02:57.192Z,29.00
2017-12-03T02:05:23.774Z,31.07
2017-12-03T02:07:50.384Z,30.87
2017-12-03T02:10:16.970Z,31.53
2017-12-03T02:12:43.566Z,32.03
2017-12-03T02:15:10.195Z,30.20
2017-12-03T02:17:36.809Z,33.27
2017-12-03T02:20:03.404Z,29.63
2017-12-03T02:22:30.014Z,30.23
2017-12-03T02:24:56.615Z,33.27
2017-12-03T02:27:23.197Z,31.23
2017-12-03T02:29:49.807Z,30.03
2017-12-03T02:32:16.390Z,27.93
2017-12-03T02:34:42.994Z,29.83
2017-12-03T02:37:09.612Z,29.80
2017-12-03T02:39:36.200Z,25.87
2017-12-03T02:42:02.793Z,27.00
2017-12-03T02:44:29.399Z,28.50
2017-12-03T02:46:55.986Z,30.10
2017-12-03T02:49:22.584Z,30.27
2017-12-03T02:51:49.194Z,28.77
2017-12-03T02:54:15.782Z,29.40
2017-12-03T02:56:42.378Z,28.17
2017-12-03T02:59:08.989Z,26.33
2017-12-03T03:01:35.586Z,27.07
2017-12-03T03:04:02.308Z,27.23
2017-12-03T03:06:28.910Z,29.70
2017-12-03T03:08:55.504Z,28.60
2017-12-03T03:11:22.113Z,26.97
2017-12-03T03:13:48.714Z,25.33
2017-12-03T03:16:15.301Z,29.73
2017-12-03T03:18:41.903Z,26.20
2017-12-03T03:21:08.521Z,27.43
2017-12-03T03:23:35.118Z,26.33
2017-12-03T03:26:01.711Z,28.83
2017-12-03T03:28:28.313Z,27.17
2017-12-03T03:30:54.916Z,24.87
2017-12-03T03:33:21.504Z,27.13
2017-12-03T03:35:48.109Z,25.50
2017-12-03T03:38:14.698Z,25.03
2017-12-03T03:40:41.291Z,26.63
2017-12-03T03:43:07.898Z,26.37
2017-12-03T03:45:34.494Z,25.60
2017-12-03T03:48:01.098Z,22.87
2017-12-03T03:50:27.694Z,25.63
2017-12-03T03:52:54.289Z,29.90
2017-12-03T03:55:20.882Z,25.03
2017-12-03T03:57:47.481Z,24.57
2017-12-03T04:00:14.082Z,24.27
2017-12-03T04:02:40.678Z,24.50
2017-12-03T04:05:07.346Z,24.00
2017-12-03T04:07:33.941Z,25.77
2017-12-03T04:10:00.524Z,23.10
2017-12-03T04:12:27.122Z,24.10
2017-12-03T04:14:53.706Z,27.17
2017-12-03T04:17:21.202Z,26.80
2017-12-03T04:19:47.818Z,24.27
2017-12-03T04:22:14.405Z,22.30
2017-12-03T04:24:41.001Z,25.23
2017-12-03T04:27:07.652Z,23.97
2017-12-03T04:29:34.239Z,23.40
2017-12-03T04:32:00.826Z,23.37
2017-12-03T04:34:27.434Z,22.30
2017-12-03T04:36:54.043Z,26.33
2017-12-03T04:39:20.636Z,25.30
2017-12-03T04:41:47.243Z,23.97
2017-12-03T04:44:13.870Z,23.50
2017-12-03T04:46:40.442Z,22.63
2017-12-03T04:49:07.062Z,25.63
2017-12-03T04:51:33.642Z,24.23
2017-12-03T04:54:00.246Z,24.63
2017-12-03T04:56:26.845Z,22.03
2017-12-03T04:58:53.442Z,24.50
2017-12-03T05:01:20.034Z,23.17
2017-12-03T05:03:46.648Z,20.40
2017-12-03T05:06:13.237Z,21.80
2017-12-03T05:08:39.833Z,21.03
2017-12-03T05:11:06.474Z,23.80
2017-12-03T05:13:33.045Z,23.77
2017-12-03T05:15:59.626Z,21.97
2017-12-03T05:18:26.250Z,24.93
2017-12-03T05:20:52.842Z,25.90
2017-12-03T05:23:19.435Z,21.57
2017-12-03T05:25:46.033Z,23.37
2017-12-03T05:28:12.622Z,22.70
2017-12-03T05:30:39.209Z,20.20
2017-12-03T05:33:05.828Z,24.40
2017-12-03T05:35:32.438Z,21.53
2017-12-03T05:37:59.030Z,20.80
2017-12-03T05:40:25.630Z,22.13
2017-12-03T05:42:52.222Z,23.00
2017-12-03T05:45:18.813Z,21.33
2017-12-03T05:47:45.419Z,20.50
2017-12-03T05:50:12.010Z,21.10
2017-12-03T05:52:38.601Z,22.03
2017-12-03T05:55:05.219Z,20.63
2017-12-03T05:57:31.806Z,22.13
2017-12-03T05:59:58.393Z,22.20
2017-12-03T06:02:24.994Z,20.90
2017-12-03T06:04:51.590Z,22.20
2017-12-03T06:07:18.178Z,22.10
2017-12-03T06:09:44.822Z,20.70
2017-12-03T06:12:11.420Z,37.43
2017-12-03T06:14:38.014Z,19.60
2017-12-03T06:17:04.631Z,21.23
2017-12-03T06:19:31.214Z,21.97
2017-12-03T06:21:57.809Z,22.00
2017-12-03T06:24:24.421Z,24.80
2017-12-03T06:26:51.019Z,24.40
2017-12-03T06:29:17.615Z,22.70
2017-12-03T06:31:44.222Z,21.77
2017-12-03T06:34:10.811Z,24.07
2017-12-03T06:36:37.393Z,20.23
2017-12-03T06:39:04.001Z,22.63
2017-12-03T06:41:30.601Z,20.27
2017-12-03T06:43:57.186Z,21.57
2017-12-03T06:46:23.785Z,22.30
2017-12-03T06:48:50.398Z,21.43
2017-12-03T06:51:16.986Z,20.10
2017-12-03T06:53:43.581Z,22.90
2017-12-03T06:56:10.175Z,23.13
2017-12-03T06:58:36.778Z,19.90
2017-12-03T07:01:03.425Z,22.00
2017-12-03T07:03:29.982Z,20.93
2017-12-03T07:05:56.618Z,19.00
2017-12-03T07:08:23.234Z,23.53
2017-12-03T07:10:49.799Z,20.80
2017-12-03T07:13:16.390Z,22.07
2017-12-03T07:15:42.995Z,23.07
2017-12-03T07:18:09.590Z,20.90
2017-12-03T07:20:36.180Z,21.10
2017-12-03T07:23:03.691Z,21.30
2017-12-03T07:25:30.282Z,21.63
2017-12-03T07:27:56.879Z,21.33
2017-12-03T07:30:23.474Z,23.93
2017-12-03T07:32:50.070Z,20.80
2017-12-03T07:35:16.658Z,19.97
2017-12-03T07:37:43.262Z,20.33
2017-12-03T07:40:09.866Z,24.40
2017-12-03T07:42:36.450Z,22.63
2017-12-03T07:45:03.061Z,23.03
2017-12-03T07:47:29.649Z,23.00
2017-12-03T07:49:56.238Z,21.50
2017-12-03T07:52:22.842Z,25.57
2017-12-03T07:54:49.429Z,23.07
2017-12-03T07:57:16.014Z,24.37
2017-12-03T07:59:42.615Z,25.00
2017-12-03T08:02:09.207Z,22.77
2017-12-03T08:04:35.793Z,22.57
2017-12-03T08:07:02.420Z,27.93
2017-12-03T08:09:28.999Z,26.40
2017-12-03T08:11:55.602Z,27.30
2017-12-03T08:14:22.263Z,25.20
2017-12-03T08:16:48.854Z,24.70
2017-12-03T08:19:15.440Z,25.40
2017-12-03T08:21:42.055Z,27.27
2017-12-03T08:24:08.649Z,24.77
2017-12-03T08:26:35.254Z,26.90
2017-12-03T08:29:01.862Z,26.03
2017-12-03T08:31:28.450Z,27.00
2017-12-03T08:33:55.038Z,27.10
2017-12-03T08:36:21.643Z,27.00
2017-12-03T08:38:48.226Z,28.53
2017-12-03T08:41:14.813Z,31.47
2017-12-03T08:43:41.447Z,25.03
2017-12-03T08:46:08.038Z,26.67
2017-12-03T08:48:34.648Z,28.73
2017-12-03T08:51:01.258Z,26.93
2017-12-03T08:53:27.848Z,27.80
2017-12-03T08:55:54.441Z,27.90
2017-12-03T08:58:21.051Z,24.87
2017-12-03T09:00:47.734Z,29.60
2017-12-03T09:03:14.327Z,25.73
2017-12-03T09:05:40.934Z,30.50
2017-12-03T09:08:07.646Z,26.43
2017-12-03T09:10:34.234Z,28.43
2017-12-03T09:13:00.867Z,26.77
2017-12-03T09:15:27.450Z,27.83
2017-12-03T09:17:54.078Z,29.50
2017-12-03T09:20:20.670Z,30.93
2017-12-03T09:22:47.254Z,28.03
2017-12-03T09:25:13.842Z,28.67
2017-12-03T09:27:40.450Z,27.43
2017-12-03T09:30:07.044Z,31.20
2017-12-03T09:32:33.630Z,29.70
2017-12-03T09:35:00.250Z,28.53
2017-12-03T09:37:26.842Z,26.50
2017-12-03T09:39:53.466Z,27.13
2017-12-03T09:42:20.067Z,28.30
2017-12-03T09:44:46.661Z,28.43
2017-12-03T09:47:13.253Z,29.93
2017-12-03T09:49:39.857Z,25.83
2017-12-03T09:52:06.461Z,29.57
2017-12-03T09:54:33.041Z,29.87
2017-12-03T09:56:59.714Z,28.63
2017-12-03T09:59:26.306Z,26.23
2017-12-03T10:01:52.898Z,30.17
2017-12-03T10:04:19.501Z,33.63
2017-12-03T10:06:46.100Z,26.70
2017-12-03T10:09:12.686Z,30.70
2017-12-03T10:11:39.290Z,32.37
2017-12-03T10:14:05.882Z,29.90
2017-12-03T10:16:32.475Z,30.97
2017-12-03T10:18:59.093Z,30.20
2017-12-03T10:21:25.673Z,31.97
2017-12-03T10:23:52.269Z,29.13
2017-12-03T10:26:18.862Z,29.33
2017-12-03T10:28:45.458Z,28.80
2017-12-03T10:31:12.051Z,28.03
2017-12-03T10:33:38.672Z,30.13
2017-12-03T10:36:05.269Z,24.83
2017-12-03T10:38:31.864Z,33.00
2017-12-03T10:40:58.481Z,32.73
2017-12-03T10:43:25.075Z,27.37
2017-12-03T10:45:51.931Z,28.40
2017-12-03T10:48:18.534Z,28.73
2017-12-03T10:50:45.122Z,26.97
2017-12-03T10:53:11.726Z,30.90
2017-12-03T10:55:38.329Z,30.77
2017-12-03T10:58:04.915Z,28.60
2017-12-03T11:00:31.504Z,31.17
2017-12-03T11:02:58.209Z,33.20
2017-12-03T11:05:24.778Z,30.97
2017-12-03T11:07:51.365Z,31.53
2017-12-03T11:10:17.990Z,31.27
2017-12-03T11:12:44.582Z,29.27
2017-12-03T11:15:11.218Z,31.60
2017-12-03T11:17:37.783Z,27.47
2017-12-03T11:20:04.370Z,32.13
2017-12-03T11:22:30.967Z,30.10
2017-12-03T11:24:57.569Z,27.80
2017-12-03T11:27:24.199Z,28.20
2017-12-03T11:29:50.795Z,28.77
2017-12-03T11:32:17.412Z,28.33
2017-12-03T11:34:44.002Z,30.17
2017-12-03T11:37:10.607Z,30.10
2017-12-03T11:39:37.214Z,30.10
2017-12-03T11:42:03.805Z,27.60
2017-12-03T11:44:30.426Z,29.83
2017-12-03T11:46:57.039Z,30.00
2017-12-03T11:49:23.629Z,34.40
2017-12-03T11:51:50.218Z,30.00
2017-12-03T11:54:16.826Z,29.10
2017-12-03T11:56:43.419Z,29.07
2017-12-03T11:59:10.030Z,28.70
2017-12-03T12:01:36.638Z,28.27
2017-12-03T12:04:03.226Z,30.10
2017-12-03T12:06:29.813Z,28.57
2017-12-03T12:08:56.421Z,30.17
2017-12-03T12:11:23.957Z,25.83
2017-12-03T12:13:50.551Z,29.57
2017-12-03T12:16:17.186Z,29.63
2017-12-03T12:18:43.783Z,27.70
2017-12-03T12:21:10.419Z,31.33
2017-12-03T12:23:37.022Z,31.87
2017-12-03T12:26:03.622Z,28.43
2017-12-03T12:28:30.210Z,30.87
2017-12-03T12:30:56.842Z,26.60
2017-12-03T12:33:23.429Z,31.17
2017-12-03T12:35:50.022Z,26.90
2017-12-03T12:38:17.542Z,27.87
2017-12-03T12:40:44.133Z,31.77
2017-12-03T12:43:10.730Z,33.13
2017-12-03T12:45:37.348Z,27.63
2017-12-03T12:48:03.930Z,33.00
2017-12-03T12:50:30.522Z,29.10
2017-12-03T12:52:57.135Z,31.67
2017-12-03T12:55:23.721Z,27.80
2017-12-03T12:57:50.307Z,26.90
2017-12-03T13:00:16.910Z,26.53
2017-12-03T13:02:43.501Z,30.30
2017-12-03T13:05:10.105Z,34.00
2017-12-03T13:07:36.714Z,30.20
2017-12-03T13:10:03.297Z,31.00
2017-12-03T13:12:29.895Z,27.80
2017-12-03T13:14:56.515Z,29.57
2017-12-03T13:17:23.109Z,25.30
2017-12-03T13:19:49.700Z,26.70
2017-12-03T13:22:16.306Z,26.93
2017-12-03T13:24:42.907Z,27.83
2017-12-03T13:27:09.499Z,40.00
2017-12-03T13:29:36.117Z,33.23
2017-12-03T13:32:02.711Z,33.30
2017-12-03T13:34:29.298Z,31.30
2017-12-03T13:36:55.918Z,36.30
2017-12-03T13:39:22.506Z,31.70
2017-12-03T13:41:49.092Z,32.73
2017-12-03T13:44:15.710Z,35.47
2017-12-03T13:46:42.282Z,31.63
2017-12-03T13:49:08.882Z,28.10
2017-12-03T13:51:35.503Z,31.03
2017-12-03T13:54:02.106Z,31.33
2017-12-03T13:56:28.694Z,29.47
2017-12-03T13:58:55.829Z,33.87
2017-12-03T14:01:22.426Z,30.37
2017-12-03T14:03:49.034Z,30.73
2017-12-03T14:06:15.634Z,27.97
2017-12-03T14:08:42.231Z,31.07
2017-12-03T14:11:08.835Z,35.17
2017-12-03T14:13:35.450Z,29.40
2017-12-03T14:16:02.058Z,28.57
2017-12-03T14:18:28.663Z,31.20
2017-12-03T14:20:55.276Z,31.40
2017-12-03T14:23:21.879Z,37.73
2017-12-03T14:25:48.470Z,34.77
2017-12-03T14:28:15.074Z,33.73
2017-12-03T14:30:41.669Z,30.83
2017-12-03T14:33:08.294Z,31.93
2017-12-03T14:35:34.898Z,32.97
2017-12-03T14:38:01.496Z,31.07
2017-12-03T14:40:28.082Z,31.90
2017-12-03T14:42:54.710Z,32.10
2017-12-03T14:45:21.310Z,32.17
2017-12-03T14:47:47.922Z,31.20
2017-12-03T14:50:14.585Z,31.90
2017-12-03T14:52:41.175Z,30.30
2017-12-03T14:55:07.813Z,32.23
2017-12-03T14:57:36.099Z,30.87
2017-12-03T15:00:02.688Z,39.43
2017-12-03T15:02:29.307Z,32.60
2017-12-03T15:04:55.990Z,31.73
2017-12-03T15:07:22.578Z,32.07
2017-12-03T15:09:49.283Z,31.00
2017-12-03T15:12:15.950Z,30.57
2017-12-03T15:14:42.692Z,31.90
2017-12-03T15:17:09.417Z,31.23
2017-12-03T15:19:36.051Z,29.40
2017-12-03T15:22:02.709Z,30.50
2017-12-03T15:24:29.330Z,30.83
2017-12-03T15:26:55.946Z,26.80
2017-12-03T15:29:22.538Z,28.57
2017-12-03T15:31:49.153Z,28.80
2017-12-03T15:34:15.944Z,33.37
2017-12-03T15:36:42.689Z,31.90
2017-12-03T15:39:09.531Z,29.67
2017-12-03T15:41:36.345Z,29.93
2017-12-03T15:44:02.958Z,27.30
2017-12-03T15:46:29.558Z,28.20
2017-12-03T15:48:56.182Z,28.57
2017-12-03T15:51:22.769Z,26.77
2017-12-03T15:53:49.575Z,26.00
2017-12-03T15:56:16.181Z,24.50
2017-12-03T15:58:42.774Z,28.33
2017-12-03T16:01:09.516Z,28.73
2017-12-03T16:03:36.138Z,24.47
2017-12-03T16:06:02.722Z,21.07
2017-12-03T16:08:29.314Z,24.63
2017-12-03T16:10:56.028Z,26.20
2017-12-03T16:13:22.594Z,23.27
2017-12-03T16:15:49.178Z,23.73
2017-12-03T16:18:15.778Z,29.60
2017-12-03T16:20:42.371Z,23.33
2017-12-03T16:23:08.975Z,23.70
2017-12-03T16:25:35.574Z,24.83
2017-12-03T16:28:02.166Z,23.77
2017-12-03T16:30:28.757Z,27.30
2017-12-03T16:32:55.383Z,27.90
2017-12-03T16:35:21.967Z,28.30
2017-12-03T16:37:48.577Z,25.77
2017-12-03T16:40:15.213Z,30.40
2017-12-03T16:42:41.810Z,29.70
2017-12-03T16:45:08.421Z,32.77
2017-12-03T16:47:35.035Z,31.57
2017-12-03T16:50:02.626Z,31.07
2017-12-03T16:52:36.938Z,30.27
2017-12-03T16:55:04.702Z,30.27
2017-12-03T16:57:31.515Z,30.83
2017-12-03T16:59:58.201Z,31.03
2017-12-03T17:02:24.812Z,32.60
2017-12-03T17:04:51.445Z,26.70
2017-12-03T17:07:18.034Z,26.47
2017-12-03T17:09:44.653Z,23.73
2017-12-03T17:12:12.220Z,26.37
2017-12-03T17:14:38.846Z,28.83
2017-12-03T17:17:05.434Z,24.00
2017-12-03T17:19:32.089Z,28.33
2017-12-03T17:21:58.690Z,25.73
2017-12-03T17:24:25.277Z,25.60
2017-12-03T17:26:51.875Z,25.87
2017-12-03T17:29:18.470Z,23.40
2017-12-03T17:31:46.025Z,25.67
2017-12-03T17:34:12.623Z,23.30
2017-12-03T17:36:39.323Z,23.57
2017-12-03T17:39:05.914Z,25.70
2017-12-03T17:41:32.523Z,22.63
2017-12-03T17:43:59.131Z,24.60
2017-12-03T17:46:25.749Z,24.03
2017-12-03T17:48:52.338Z,22.60
2017-12-03T17:51:18.952Z,22.87
2017-12-03T17:53:45.570Z,25.37
2017-12-03T17:56:12.342Z,27.57
2017-12-03T17:58:39.243Z,22.60
2017-12-03T18:01:05.867Z,23.20
2017-12-03T18:03:34.334Z,29.23
2017-12-03T18:06:00.940Z,21.93
2017-12-03T18:08:27.544Z,22.30
2017-12-03T18:10:54.996Z,22.30
2017-12-03T18:13:21.603Z,23.47
2017-12-03T18:15:48.194Z,23.90
2017-12-03T18:18:14.792Z,22.63
2017-12-03T18:20:41.484Z,20.53
2017-12-03T18:23:08.062Z,25.27
2017-12-03T18:25:34.678Z,21.50
2017-12-03T18:28:01.303Z,26.70
2017-12-03T18:30:27.886Z,29.00
2017-12-03T18:32:54.479Z,32.03
2017-12-03T18:35:21.082Z,25.87
2017-12-03T18:37:47.678Z,27.57
2017-12-03T18:40:14.270Z,27.20
2017-12-03T18:42:40.894Z,25.80
2017-12-03T18:45:07.493Z,21.30
2017-12-03T18:47:34.103Z,23.63
2017-12-03T18:50:00.724Z,24.77
2017-12-03T18:52:27.318Z,22.77
2017-12-03T18:54:53.902Z,24.43
2017-12-03T18:57:20.513Z,24.10
2017-12-03T18:59:47.109Z,20.67
2017-12-03T19:02:13.706Z,23.17
2017-12-03T19:04:40.329Z,29.80
2017-12-03T19:07:07.522Z,29.10
2017-12-03T19:09:34.114Z,30.80
2017-12-03T19:12:00.734Z,26.07
2017-12-03T19:14:27.327Z,23.90
2017-12-03T19:16:53.922Z,23.93
2017-12-03T19:19:20.641Z,25.10
2017-12-03T19:21:47.235Z,24.00
2017-12-03T19:24:13.830Z,22.57
2017-12-03T19:26:40.441Z,22.93
2017-12-03T19:29:07.048Z,19.53
2017-12-03T19:31:33.631Z,20.37
2017-12-03T19:34:00.234Z,24.47
2017-12-03T19:36:26.829Z,25.80
2017-12-03T19:38:53.415Z,23.17
2017-12-03T19:41:20.026Z,24.30
2017-12-03T19:43:46.623Z,23.47
2017-12-03T19:46:13.218Z,20.53
2017-12-03T19:48:39.855Z,22.77
2017-12-03T19:51:06.441Z,21.73
2017-12-03T19:53:33.035Z,21.20
2017-12-03T19:55:59.684Z,29.30
2017-12-03T19:58:26.275Z,32.87
2017-12-03T20:00:53.642Z,46.50
2017-12-03T20:03:20.259Z,57.57
2017-12-03T20:05:46.865Z,91.03
2017-12-03T20:08:13.451Z,80.50
2017-12-03T20:10:40.070Z,74.60
2017-12-03T20:13:06.678Z,48.10
2017-12-03T20:15:33.253Z,41.13
2017-12-03T20:17:59.874Z,39.57
2017-12-03T20:20:26.462Z,34.03
2017-12-03T20:22:53.062Z,29.97
2017-12-03T20:25:19.657Z,29.07
2017-12-03T20:27:46.254Z,41.53
2017-12-03T20:30:12.842Z,31.90
2017-12-03T20:32:39.493Z,27.97
2017-12-03T20:35:06.042Z,25.53
2017-12-03T20:37:32.634Z,31.00
2017-12-03T20:39:59.242Z,28.90
2017-12-03T20:42:25.878Z,23.70
2017-12-03T20:44:53.329Z,25.57
2017-12-03T20:47:19.944Z,25.70
2017-12-03T20:49:46.614Z,26.43
2017-12-03T20:52:13.429Z,23.40
2017-12-03T20:54:40.063Z,19.37
2017-12-03T20:57:06.649Z,21.23
2017-12-03T20:59:33.235Z,20.87
2017-12-03T21:01:59.858Z,20.03
2017-12-03T21:04:26.448Z,22.10
2017-12-03T21:06:53.045Z,20.87
2017-12-03T21:09:19.663Z,17.53
2017-12-03T21:11:46.257Z,18.83
2017-12-03T21:14:12.845Z,20.83
2017-12-03T21:16:39.466Z,21.23
2017-12-03T21:19:06.062Z,19.30
2017-12-03T21:21:32.646Z,17.90
2017-12-03T21:23:59.272Z,18.20
2017-12-03T21:26:25.860Z,18.17
2017-12-03T21:28:52.447Z,23.70
2017-12-03T21:31:19.062Z,18.90
2017-12-03T21:33:45.650Z,19.30
2017-12-03T21:36:12.238Z,26.20
2017-12-03T21:38:38.872Z,17.13
2017-12-03T21:41:05.461Z,19.47
2017-12-03T21:43:32.050Z,15.63
2017-12-03T21:45:58.662Z,18.90
2017-12-03T21:48:25.246Z,17.70
2017-12-03T21:50:51.830Z,19.57
2017-12-03T21:53:18.442Z,20.20
2017-12-03T21:55:45.066Z,23.60
2017-12-03T21:58:11.764Z,21.57
2017-12-03T22:00:38.381Z,21.47
2017-12-03T22:03:04.978Z,23.43
2017-12-03T22:05:31.570Z,18.33
2017-12-03T22:07:58.182Z,17.37
2017-12-03T22:10:24.765Z,21.03
2017-12-03T22:12:51.362Z,17.00
2017-12-03T22:15:18.022Z,20.47
2017-12-03T22:17:44.720Z,20.67
2017-12-03T22:20:11.303Z,19.60
2017-12-03T22:22:37.918Z,22.33
2017-12-03T22:25:04.508Z,16.70
2017-12-03T22:27:31.102Z,19.40
2017-12-03T22:29:57.706Z,16.23
2017-12-03T22:32:24.313Z,17.70
2017-12-03T22:34:51.576Z,17.40
2017-12-03T22:37:18.230Z,17.80
2017-12-03T22:39:44.834Z,20.57
2017-12-03T22:42:11.426Z,21.03
2017-12-03T22:44:38.042Z,26.23
2017-12-03T22:47:04.636Z,24.33
2017-12-03T22:49:31.223Z,24.07
2017-12-03T22:51:57.846Z,27.73
2017-12-03T22:54:24.440Z,22.37
2017-12-03T22:56:51.029Z,18.60
2017-12-03T22:59:17.634Z,22.93
2017-12-03T23:01:44.232Z,20.40
2017-12-03T23:04:10.831Z,18.50
2017-12-03T23:06:37.447Z,17.70
2017-12-03T23:09:04.859Z,18.93
2017-12-03T23:11:31.450Z,19.10
2017-12-03T23:13:58.050Z,18.83
2017-12-03T23:16:24.675Z,16.40
2017-12-03T23:18:51.258Z,21.10
2017-12-03T23:21:17.898Z,17.50
2017-12-03T23:23:44.516Z,17.97
2017-12-03T23:26:11.110Z,19.93
2017-12-03T23:28:37.722Z,19.73
2017-12-03T23:31:04.321Z,18.30
2017-12-03T23:33:30.902Z,19.20
2017-12-03T23:35:57.526Z,19.53
2017-12-03T23:38:24.113Z,18.20
2017-12-03T23:40:50.726Z,21.77
2017-12-03T23:43:17.339Z,20.73
2017-12-03T23:45:43.958Z,19.40
2017-12-03T23:48:10.528Z,18.70
2017-12-03T23:50:37.145Z,20.13
2017-12-03T23:53:03.722Z,21.60
2017-12-03T23:55:30.310Z,16.93
2017-12-03T23:57:58.859Z,16.90
